createdAt,value
2022-09-26T00:00:09.321Z,11.64
2022-09-26T00:04:23.005Z,11.52
2022-09-26T00:08:25.224Z,11.66
2022-09-26T00:12:26.678Z,11.60
2022-09-26T00:16:28.999Z,11.56
2022-09-26T00:20:30.459Z,11.48
2022-09-26T00:24:32.032Z,11.60
2022-09-26T00:28:34.233Z,11.55
2022-09-26T00:32:35.704Z,11.52
2022-09-26T00:36:38.723Z,11.61
2022-09-26T00:40:40.494Z,11.36
2022-09-26T00:44:44.950Z,11.39
2022-09-26T00:48:51.418Z,11.03
2022-09-26T00:52:59.409Z,11.05
2022-09-26T00:57:06.268Z,10.88
2022-09-26T01:01:09.092Z,11.13
2022-09-26T01:05:14.664Z,11.28
2022-09-26T01:09:16.594Z,11.19
2022-09-26T01:13:18.189Z,11.22
2022-09-26T01:17:21.451Z,11.15
2022-09-26T01:21:22.815Z,11.18
2022-09-26T01:25:45.427Z,11.09
2022-09-26T01:29:52.948Z,11.00
2022-09-26T01:34:04.650Z,10.94
2022-09-26T01:38:33.043Z,11.03
2022-09-26T01:42:45.901Z,11.10
2022-09-26T01:47:20.911Z,10.90
2022-09-26T01:51:35.885Z,10.91
2022-09-26T01:55:41.892Z,11.03
2022-09-26T01:59:50.046Z,10.86
2022-09-26T02:03:57.201Z,10.87
2022-09-26T02:08:06.854Z,10.66
2022-09-26T02:12:11.839Z,10.86
2022-09-26T02:16:26.108Z,10.86
2022-09-26T02:20:32.595Z,10.70
2022-09-26T02:24:34.120Z,10.71
2022-09-26T02:28:36.240Z,10.76
2022-09-26T02:32:40.352Z,10.68
2022-09-26T02:36:42.372Z,10.69
2022-09-26T02:41:02.952Z,10.60
2022-09-26T02:45:21.853Z,10.56
2022-09-26T02:49:50.445Z,10.63
2022-09-26T02:54:09.837Z,10.54
2022-09-26T02:58:35.895Z,10.45
2022-09-26T03:02:45.656Z,10.38
2022-09-26T03:06:56.553Z,10.45
2022-09-26T03:11:02.858Z,10.49
2022-09-26T03:15:07.105Z,10.49
2022-09-26T03:19:16.733Z,10.59
2022-09-26T03:23:23.169Z,10.75
2022-09-26T03:27:25.444Z,10.76
2022-09-26T03:31:28.888Z,10.80
2022-09-26T03:35:39.951Z,10.86
2022-09-26T03:39:41.360Z,10.98
2022-09-26T03:43:49.559Z,10.87
2022-09-26T03:47:58.195Z,10.91
2022-09-26T03:52:00.784Z,10.92
2022-09-26T03:56:07.919Z,10.76
2022-09-26T04:00:10.020Z,10.60
2022-09-26T04:04:22.507Z,10.51
2022-09-26T04:08:24.225Z,10.77
2022-09-26T04:12:25.742Z,10.70
2022-09-26T04:16:27.297Z,10.63
2022-09-26T04:20:35.837Z,10.73
2022-09-26T04:24:37.431Z,10.82
2022-09-26T04:28:40.869Z,10.89
2022-09-26T04:32:43.848Z,10.94
2022-09-26T04:37:14.486Z,10.79
2022-09-26T04:41:21.418Z,10.67
2022-09-26T04:45:24.545Z,10.61
2022-09-26T04:49:26.070Z,10.78
2022-09-26T04:53:27.489Z,10.68
2022-09-26T04:57:41.544Z,10.80
2022-09-26T05:01:43.245Z,10.87
2022-09-26T05:05:50.328Z,10.94
2022-09-26T05:09:53.032Z,10.91
2022-09-26T05:13:56.002Z,10.85
2022-09-26T05:18:03.970Z,10.81
2022-09-26T05:22:05.978Z,10.72
2022-09-26T05:26:23.197Z,10.78
2022-09-26T05:30:26.276Z,10.52
2022-09-26T05:34:28.242Z,10.44
2022-09-26T05:38:29.893Z,10.62
2022-09-26T05:42:31.463Z,10.51
2022-09-26T05:46:34.763Z,10.54
2022-09-26T05:50:43.988Z,10.57
2022-09-26T05:54:45.543Z,10.44
2022-09-26T05:59:16.509Z,10.41
2022-09-26T06:03:37.151Z,10.39
2022-09-26T06:07:45.630Z,10.48
2022-09-26T06:11:58.927Z,10.46
2022-09-26T06:16:07.354Z,10.53
2022-09-26T06:20:09.445Z,10.55
2022-09-26T06:24:13.066Z,10.69
2022-09-26T06:28:15.824Z,10.85
2022-09-26T06:32:17.332Z,11.06
2022-09-26T06:36:38.105Z,11.08
2022-09-26T06:40:39.757Z,11.26
2022-09-26T06:44:41.405Z,11.48
2022-09-26T06:48:58.027Z,11.64
2022-09-26T06:53:16.619Z,11.63
2022-09-26T06:57:18.160Z,11.78
2022-09-26T07:01:19.960Z,12.14
2022-09-26T07:05:39.906Z,12.14
2022-09-26T07:09:41.376Z,12.27
2022-09-26T07:14:01.984Z,12.29
2022-09-26T07:18:06.388Z,12.61
2022-09-26T07:22:29.253Z,12.15
2022-09-26T07:26:30.685Z,12.52
2022-09-26T07:30:32.536Z,12.82
2022-09-26T07:34:42.700Z,12.97
2022-09-26T07:38:48.480Z,13.29
2022-09-26T07:43:15.192Z,13.63
2022-09-26T07:47:32.985Z,13.56
2022-09-26T07:51:36.890Z,14.10
2022-09-26T07:56:01.016Z,14.17
2022-09-26T08:00:31.405Z,14.37
2022-09-26T08:04:41.062Z,14.50
2022-09-26T08:08:42.587Z,14.20
2022-09-26T08:13:07.344Z,14.02
2022-09-26T08:17:20.554Z,14.09
2022-09-26T08:21:23.084Z,13.98
2022-09-26T08:25:27.114Z,13.85
2022-09-26T08:29:37.421Z,14.10
2022-09-26T08:33:39.104Z,14.16
2022-09-26T08:37:40.660Z,14.23
2022-09-26T08:42:13.084Z,14.20
2022-09-26T08:46:42.462Z,14.55
2022-09-26T08:51:19.566Z,14.58
2022-09-26T08:55:25.410Z,14.56
2022-09-26T08:59:37.765Z,14.54
2022-09-26T09:04:09.699Z,14.63
2022-09-26T09:08:22.586Z,14.46
2022-09-26T09:13:06.541Z,14.37
2022-09-26T09:17:41.923Z,14.84
2022-09-26T09:22:11.749Z,14.91
2022-09-26T09:31:15.543Z,14.68
2022-09-26T09:35:42.420Z,14.85
2022-09-26T09:40:17.487Z,15.02
2022-09-26T09:44:46.804Z,15.05
2022-09-26T09:48:50.301Z,15.00
2022-09-26T09:53:13.344Z,16.02
2022-09-26T09:57:41.092Z,16.22
2022-09-26T10:01:46.488Z,15.63
2022-09-26T10:05:58.072Z,15.41
2022-09-26T10:10:04.789Z,15.40
2022-09-26T10:14:34.006Z,15.72
2022-09-26T10:19:06.176Z,15.85
2022-09-26T10:23:22.148Z,15.90
2022-09-26T10:27:41.003Z,15.95
2022-09-26T10:31:45.277Z,16.28
2022-09-26T10:35:52.679Z,15.97
2022-09-26T10:40:16.808Z,16.36
2022-09-26T10:44:34.138Z,16.51
2022-09-26T10:49:02.489Z,16.64
2022-09-26T10:53:23.161Z,16.75
2022-09-26T10:57:34.762Z,16.87
2022-09-26T11:01:43.149Z,16.52
2022-09-26T11:05:57.228Z,16.40
2022-09-26T11:10:08.376Z,16.73
2022-09-26T11:14:29.106Z,16.43
2022-09-26T11:18:42.987Z,16.40
2022-09-26T11:22:51.710Z,16.62
2022-09-26T11:27:05.955Z,17.20
2022-09-26T11:31:22.810Z,16.99
2022-09-26T11:35:34.479Z,17.06
2022-09-26T11:40:08.603Z,17.23
2022-09-26T11:44:33.016Z,17.01
2022-09-26T11:49:02.861Z,16.77
2022-09-26T11:53:46.787Z,16.62
2022-09-26T11:58:06.147Z,16.84
2022-09-26T12:02:34.060Z,17.24
2022-09-26T12:07:03.506Z,17.73
2022-09-26T12:11:23.409Z,17.80
2022-09-26T12:16:09.490Z,17.50
2022-09-26T12:20:28.193Z,18.00
2022-09-26T12:24:59.771Z,17.77
2022-09-26T12:29:28.915Z,17.40
2022-09-26T12:33:52.004Z,16.93
2022-09-26T12:38:08.539Z,16.99
2022-09-26T12:42:12.851Z,16.66
2022-09-26T12:46:41.602Z,16.47
2022-09-26T12:51:22.142Z,16.07
2022-09-26T12:55:35.829Z,15.65
2022-09-26T13:00:18.488Z,15.67
2022-09-26T13:04:41.647Z,15.85
2022-09-26T13:09:13.940Z,16.19
2022-09-26T13:13:38.567Z,16.40
2022-09-26T13:17:45.999Z,16.52
2022-09-26T13:21:56.304Z,16.26
2022-09-26T13:26:05.842Z,16.29
2022-09-26T13:30:16.904Z,16.00
2022-09-26T13:34:28.014Z,15.72
2022-09-26T13:38:53.888Z,15.25
2022-09-26T13:43:07.409Z,14.85
2022-09-26T13:47:25.700Z,14.72
2022-09-26T13:51:40.115Z,14.90
2022-09-26T13:55:43.398Z,15.24
2022-09-26T13:59:51.479Z,15.22
2022-09-26T14:04:18.838Z,15.28
2022-09-26T14:08:45.275Z,15.61
2022-09-26T14:13:08.365Z,15.62
2022-09-26T14:17:42.207Z,15.88
2022-09-26T14:22:05.557Z,16.10
2022-09-26T14:26:11.374Z,15.85
2022-09-26T14:30:12.753Z,15.94
2022-09-26T14:34:20.768Z,15.91
2022-09-26T14:38:22.329Z,16.07
2022-09-26T14:42:31.941Z,16.16
2022-09-26T14:46:35.536Z,16.14
2022-09-26T14:51:03.694Z,16.09
2022-09-26T14:55:07.463Z,16.13
2022-09-26T14:59:24.223Z,16.27
2022-09-26T15:03:25.881Z,16.14
2022-09-26T15:07:30.936Z,15.86
2022-09-26T15:11:37.455Z,15.85
2022-09-26T15:15:58.394Z,15.74
2022-09-26T15:20:02.788Z,15.94
2022-09-26T15:24:26.349Z,15.82
2022-09-26T15:28:30.969Z,15.84
2022-09-26T15:32:33.532Z,15.62
2022-09-26T15:36:36.588Z,15.72
2022-09-26T15:40:38.044Z,15.62
2022-09-26T15:44:48.341Z,15.08
2022-09-26T15:48:51.649Z,15.24
2022-09-26T15:53:09.823Z,14.91
2022-09-26T15:57:11.500Z,14.69
2022-09-26T16:01:21.930Z,14.60
2022-09-26T16:05:23.511Z,14.54
2022-09-26T16:09:37.414Z,14.65
2022-09-26T16:13:46.201Z,14.61
2022-09-26T16:17:53.769Z,14.67
2022-09-26T16:21:56.621Z,14.68
2022-09-26T16:25:58.069Z,14.67
2022-09-26T16:30:04.743Z,14.57
2022-09-26T16:34:19.848Z,14.42
2022-09-26T16:38:32.184Z,14.49
2022-09-26T16:42:33.613Z,14.19
2022-09-26T16:46:37.602Z,14.10
2022-09-26T16:50:40.165Z,14.19
2022-09-26T16:54:41.722Z,14.10
2022-09-26T16:58:53.047Z,14.01
2022-09-26T17:02:54.520Z,13.99
2022-09-26T17:06:59.484Z,13.99
2022-09-26T17:11:03.496Z,13.76
2022-09-26T17:15:06.615Z,13.94
2022-09-26T17:19:12.037Z,13.89
2022-09-26T17:23:38.242Z,13.84
2022-09-26T17:27:36.017Z,13.85
2022-09-26T17:31:38.694Z,13.93
2022-09-26T17:35:41.825Z,13.69
2022-09-26T17:39:44.377Z,13.84
2022-09-26T17:43:45.805Z,13.65
2022-09-26T17:47:47.489Z,13.79
2022-09-26T17:51:49.130Z,13.75
2022-09-26T17:55:52.977Z,13.62
2022-09-26T17:59:54.806Z,13.66
2022-09-26T18:04:01.153Z,13.81
2022-09-26T18:08:23.488Z,13.85
2022-09-26T18:12:25.440Z,13.67
2022-09-26T18:16:26.946Z,13.68
2022-09-26T18:20:37.453Z,13.66
2022-09-26T18:24:38.872Z,13.75
2022-09-26T18:28:40.384Z,13.67
2022-09-26T18:32:44.488Z,13.57
2022-09-26T18:36:46.663Z,13.53
2022-09-26T18:40:55.264Z,13.47
2022-09-26T18:45:05.907Z,13.56
2022-09-26T18:49:11.990Z,13.55
2022-09-26T18:53:29.504Z,13.39
2022-09-26T18:57:57.302Z,13.37
2022-09-26T19:02:01.230Z,13.63
2022-09-26T19:06:12.512Z,13.49
2022-09-26T19:10:20.118Z,13.53
2022-09-26T19:14:27.586Z,13.66
2022-09-26T19:18:28.996Z,13.67
2022-09-26T19:22:31.155Z,13.67
2022-09-26T19:26:43.390Z,13.73
2022-09-26T19:30:44.927Z,13.62
2022-09-26T19:34:52.442Z,13.49
2022-09-26T19:38:54.114Z,13.52
2022-09-26T19:42:57.070Z,13.64
2022-09-26T19:46:59.751Z,13.71
2022-09-26T19:51:01.443Z,13.76
2022-09-26T19:55:05.677Z,13.62
2022-09-26T19:59:09.695Z,13.52
2022-09-26T20:03:17.755Z,13.68
2022-09-26T20:07:19.703Z,13.75
2022-09-26T20:11:22.262Z,13.73
2022-09-26T20:15:24.375Z,13.75
2022-09-26T20:19:25.801Z,13.76
2022-09-26T20:23:27.400Z,13.57
2022-09-26T20:27:29.428Z,13.72
2022-09-26T20:31:30.841Z,13.71
2022-09-26T20:35:36.713Z,13.66
2022-09-26T20:39:39.382Z,13.82
2022-09-26T20:43:44.120Z,13.68
2022-09-26T20:47:45.843Z,13.79
2022-09-26T20:51:48.256Z,13.79
2022-09-26T20:55:51.028Z,13.90
2022-09-26T20:59:52.542Z,13.81
2022-09-26T21:03:55.412Z,13.82
2022-09-26T21:07:58.984Z,13.69
2022-09-26T21:12:01.445Z,13.90
2022-09-26T21:16:02.976Z,13.85
2022-09-26T21:20:05.321Z,13.76
2022-09-26T21:24:31.142Z,13.99
2022-09-26T21:28:32.587Z,14.01
2022-09-26T21:32:34.525Z,13.86
2022-09-26T21:36:40.277Z,13.95
2022-09-26T21:40:43.724Z,13.71
2022-09-26T21:44:51.148Z,14.07
2022-09-26T21:48:53.972Z,13.86
2022-09-26T21:53:05.092Z,13.89
2022-09-26T21:57:27.287Z,13.82
2022-09-26T22:01:28.729Z,13.53
2022-09-26T22:05:31.260Z,13.71
2022-09-26T22:09:32.697Z,13.76
2022-09-26T22:13:36.016Z,13.78
2022-09-26T22:17:37.505Z,13.59
2022-09-26T22:21:39.184Z,13.59
2022-09-26T22:25:42.937Z,13.53
2022-09-26T22:29:44.558Z,13.43
2022-09-26T22:33:46.079Z,13.68
2022-09-26T22:37:47.540Z,13.74
2022-09-26T22:41:48.997Z,13.74
2022-09-26T22:45:50.438Z,13.62
2022-09-26T22:49:51.936Z,13.74
2022-09-26T22:53:53.351Z,13.67
2022-09-26T22:57:54.807Z,13.57
2022-09-26T23:01:57.078Z,13.45
2022-09-26T23:05:59.480Z,13.39
2022-09-26T23:10:00.892Z,13.20
2022-09-26T23:14:02.466Z,13.34
2022-09-26T23:18:03.940Z,13.03
2022-09-26T23:22:05.696Z,13.10
2022-09-26T23:26:07.876Z,13.19
2022-09-26T23:30:09.895Z,12.95
2022-09-26T23:34:12.081Z,12.93
2022-09-26T23:38:13.482Z,13.01
2022-09-26T23:42:15.086Z,12.93
2022-09-26T23:46:16.630Z,13.03
2022-09-26T23:50:18.086Z,12.95
2022-09-26T23:54:19.495Z,12.87
2022-09-26T23:58:20.901Z,12.93
